Time;durP1;ratioP1;P1;durP2;ratioP2;P2;SDS_P1;SDS_P2;PMS_P1;PMS_P2;Temp;Humidity;BMP_temperature;BMP_pressure;BME280_temperature;BME280_humidity;BME280_pressure;Samples;Min_cycle;Max_cycle;Signal;HPM_P1;HPM_P2
2022/11/06 00:00:56;;;;;;;5.70;5.30;;;;;;;-142.65;80.14;50170.78;5113518;28;20178;-69
2022/11/06 00:03:23;;;;;;;5.07;4.87;;;;;;;-142.65;80.03;50174.75;5113426;28;20209;-69
2022/11/06 00:08:39;;;;;;;5.03;4.77;;;;;;;-142.65;80.21;50178.75;5113505;28;20535;-69
2022/11/06 00:11:11;;;;;;;6.03;5.23;;;;;;;-142.65;80.18;50174.75;5113218;28;20205;-69
2022/11/06 00:13:39;;;;;;;5.33;4.93;;;;;;;-142.65;80.02;50170.78;5113288;28;20687;-69
2022/11/06 00:16:07;;;;;;;5.20;4.90;;;;;;;-142.65;80.17;50170.78;5113191;28;20169;-69
2022/11/06 00:18:35;;;;;;;4.97;4.70;;;;;;;-142.65;80.09;50180.75;5113122;28;20635;-69
2022/11/06 00:21:13;;;;;;;6.27;5.60;;;;;;;-142.65;79.86;50178.75;5113075;28;20190;-69
2022/11/06 00:23:40;;;;;;;5.93;5.03;;;;;;;-142.65;80.00;50168.78;5116284;28;20180;-69
2022/11/06 00:26:10;;;;;;;4.80;4.40;;;;;;;-142.65;79.68;50170.78;5116630;28;20205;-69
2022/11/06 00:28:36;;;;;;;5.37;5.00;;;;;;;;;;5116642;28;20191;-69
2022/11/06 00:31:06;;;;;;;5.00;4.53;;;;;;;;;;5116806;28;20189;-69
2022/11/06 00:33:33;;;;;;;8.93;4.93;;;;;;;-142.65;80.26;50170.78;5116460;28;20208;-69
2022/11/06 00:36:05;;;;;;;7.17;5.13;;;;;;;-142.65;80.09;50172.78;5116482;28;20184;-69
2022/11/06 00:38:31;;;;;;;4.57;4.17;;;;;;;-142.65;80.25;50176.75;5116742;28;20200;-69
2022/11/06 00:41:07;;;;;;;5.87;5.00;;;;;;;-142.65;79.81;50172.78;5116422;28;20191;-69
2022/11/06 00:43:34;;;;;;;4.77;4.40;;;;;;;-142.65;80.18;50180.75;5116372;28;20208;-69
2022/11/06 00:46:11;;;;;;;4.50;4.03;;;;;;;-142.65;80.24;50180.75;5116214;28;20747;-69
2022/11/06 00:48:39;;;;;;;5.67;4.80;;;;;;;-142.65;80.00;50170.78;5116801;28;20181;-68
2022/11/06 00:51:11;;;;;;;4.87;4.57;;;;;;;-142.65;80.32;50172.78;5116473;28;20180;-68
2022/11/06 00:53:38;;;;;;;3.73;3.63;;;;;;;-142.65;80.22;50168.78;5116017;28;20200;-69
2022/11/06 00:56:16;;;;;;;4.27;4.17;;;;;;;-142.65;80.47;50162.81;5115982;28;20189;-69
2022/11/06 00:58:44;;;;;;;4.60;4.50;;;;;;;-142.65;80.45;50170.78;5116058;28;20181;-69
2022/11/06 01:01:21;;;;;;;8.87;3.60;;;;;;;-142.65;80.22;50170.78;5116018;28;20193;-69
2022/11/06 01:03:52;;;;;;;4.53;4.23;;;;;;;-142.65;80.14;50174.75;5116794;28;20579;-69
2022/11/06 01:06:21;;;;;;;4.60;4.13;;;;;;;-142.65;80.17;50178.75;5116108;28;20197;-69
2022/11/06 01:08:48;;;;;;;3.97;3.77;;;;;;;-142.65;80.49;50168.78;5116094;28;20559;-69
2022/11/06 01:11:24;;;;;;;4.10;4.00;;;;;;;-142.65;80.49;50176.75;5115712;28;20194;-70
2022/11/06 01:13:53;;;;;;;5.73;3.70;;;;;;;-142.65;80.54;50170.78;5115843;28;20272;-70
2022/11/06 01:16:21;;;;;;;5.83;4.10;;;;;;;-142.65;80.41;50170.78;5116012;28;20217;-70
2022/11/06 01:18:48;;;;;;;4.90;4.50;;;;;;;-142.65;80.52;50172.78;5115647;28;20213;-70
2022/11/06 01:21:18;;;;;;;4.23;3.70;;;;;;;-142.65;80.41;50180.75;5115856;28;20191;-70
2022/11/06 01:23:45;;;;;;;3.07;3.07;;;;;;;;;;5115564;28;20194;-70
2022/11/06 01:26:13;;;;;;;10.97;4.30;;;;;;;-142.65;80.41;50174.75;5115968;28;20535;-70
2022/11/06 01:28:40;;;;;;;5.00;4.87;;;;;;;-142.65;80.07;50170.78;5115462;28;20192;-70
2022/11/06 01:31:10;;;;;;;3.93;3.73;;;;;;;-142.65;80.05;50170.78;5115423;28;20564;-69
2022/11/06 01:33:37;;;;;;;5.67;4.27;;;;;;;-142.65;80.66;50174.75;5114937;28;20184;-69
2022/11/06 01:36:03;;;;;;;5.87;3.90;;;;;;;-142.65;80.29;50174.75;5115504;28;20182;-69
2022/11/06 01:38:30;;;;;;;3.33;3.23;;;;;;;;;;5115848;28;20196;-69
2022/11/06 01:40:56;;;;;;;4.70;4.33;;;;;;;;;;5115509;28;20670;-69
2022/11/06 01:43:44;;;;;;;5.67;4.00;;;;;;;-142.65;80.45;50168.78;5115131;28;20212;-69
2022/11/06 01:46:11;;;;;;;4.70;4.30;;;;;;;-142.65;80.38;50172.78;5114761;28;20222;-69
2022/11/06 01:48:39;;;;;;;8.23;4.33;;;;;;;-142.65;80.53;50170.78;5115621;28;20191;-69
2022/11/06 01:51:06;;;;;;;4.60;4.30;;;;;;;;;;5114993;28;20193;-69
2022/11/06 01:53:34;;;;;;;4.30;4.13;;;;;;;-142.65;80.32;50168.78;5114914;28;20200;-69
2022/11/06 01:56:06;;;;;;;4.83;4.57;;;;;;;;;;5114943;28;20578;-69
2022/11/06 01:58:36;;;;;;;5.93;4.77;;;;;;;-142.65;80.63;50176.75;5115472;28;20181;-69
2022/11/06 02:01:02;;;;;;;3.33;3.17;;;;;;;;;;5114864;28;20181;-69
2022/11/06 02:03:29;;;;;;;4.17;3.87;;;;;;;-142.65;80.35;50170.78;5114721;28;20702;-69
2022/11/06 02:05:56;;;;;;;9.13;3.50;;;;;;;-142.65;80.27;50180.75;5114670;28;20681;-69
2022/11/06 02:08:23;;;;;;;4.93;3.53;;;;;;;-142.65;80.08;50174.75;5115198;28;20186;-69
2022/11/06 02:10:50;;;;;;;3.90;3.60;;;;;;;-142.65;79.87;50182.72;5114465;28;20189;-69
2022/11/06 02:13:16;;;;;;;4.03;3.83;;;;;;;-142.65;80.10;50170.78;5114421;28;20215;-69
2022/11/06 02:15:57;;;;;;;6.90;3.53;;;;;;;-142.65;80.28;50170.78;5096643;28;20189;-69
2022/11/06 02:18:46;;;;;;;6.30;3.40;;;;;;;-142.65;80.10;50174.75;5114835;28;20180;-69
2022/11/06 02:21:46;;;;;;;4.00;3.60;;;;;;;-142.65;80.57;50172.78;5114725;28;20192;-70
2022/11/06 02:24:39;;;;;;;3.33;3.23;;;;;;;-142.65;80.62;50180.75;5114459;28;20180;-69
2022/11/06 02:27:21;;;;;;;3.83;3.50;;;;;;;-142.65;80.47;50178.75;5114489;28;20203;-69
2022/11/06 02:30:05;;;;;;;3.10;3.10;;;;;;;-142.65;80.50;50170.78;5114663;28;20169;-70
2022/11/06 02:32:38;;;;;;;3.77;3.67;;;;;;;-142.65;80.24;50170.78;5114261;28;20216;-69
2022/11/06 02:35:29;;;;;;;3.77;3.47;;;;;;;-142.65;80.09;50172.78;5114460;28;20184;-69
2022/11/06 02:38:05;;;;;;;3.77;3.47;;;;;;;-142.65;80.22;50180.75;5114768;28;20169;-69
2022/11/06 02:40:34;;;;;;;3.20;3.13;;;;;;;-142.65;80.00;50172.78;5114650;28;20184;-69
2022/11/06 02:43:05;;;;;;;3.27;3.03;;;;;;;-142.65;80.27;50172.78;5114032;28;20570;-69
2022/11/06 02:45:43;;;;;;;3.47;3.30;;;;;;;-142.65;80.17;50174.75;5114019;28;20179;-69
2022/11/06 02:48:13;;;;;;;3.40;3.37;;;;;;;-142.65;79.90;50176.75;5114324;28;20184;-69
2022/11/06 02:50:44;;;;;;;3.30;3.30;;;;;;;-142.65;79.97;50178.75;5114278;28;20236;-69
2022/11/06 02:53:15;;;;;;;3.53;3.40;;;;;;;-142.65;79.88;50172.78;5113926;28;20208;-69
2022/11/06 02:55:50;;;;;;;4.00;3.80;;;;;;;-142.65;79.92;50170.78;5113970;28;20184;-69
2022/11/06 02:58:26;;;;;;;3.57;3.47;;;;;;;-142.65;80.14;50178.75;5114459;28;20181;-69
2022/11/06 03:01:03;;;;;;;3.20;3.00;;;;;;;-142.65;80.13;50174.75;5095647;28;20184;-69
2022/11/06 03:03:33;;;;;;;3.57;3.27;;;;;;;-142.65;80.17;50178.75;5114036;28;20212;-69
2022/11/06 03:06:06;;;;;;;4.10;3.63;;;;;;;-142.65;80.21;50180.75;5113681;28;20196;-69
2022/11/06 03:08:43;;;;;;;7.43;3.30;;;;;;;-142.65;80.29;50170.78;5114315;28;20254;-69
2022/11/06 03:11:09;;;;;;;2.70;2.70;;;;;;;-142.65;80.35;50174.75;5113738;28;20642;-69
2022/11/06 03:13:54;;;;;;;2.90;2.67;;;;;;;;;;5113562;28;20220;-69
2022/11/06 03:16:52;;;;;;;3.17;3.03;;;;;;;-142.65;80.12;50174.75;5113711;28;20199;-69
2022/11/06 03:19:28;;;;;;;3.30;3.07;;;;;;;-142.65;80.31;50174.75;5114260;28;20216;-69
2022/11/06 03:22:06;;;;;;;3.43;3.33;;;;;;;;;;5113993;28;20212;-70
2022/11/06 03:24:36;;;;;;;3.30;3.00;;;;;;;-142.65;80.66;50172.78;5113957;28;20625;-70
2022/11/06 03:27:11;;;;;;;3.00;2.90;;;;;;;-142.65;80.90;50178.75;5113542;28;20215;-69
2022/11/06 03:29:42;;;;;;;7.83;3.67;;;;;;;-142.65;80.71;50170.78;5113870;28;20186;-69
2022/11/06 03:32:29;;;;;;;4.60;3.73;;;;;;;-142.65;80.82;50178.75;5113660;28;20212;-69
2022/11/06 03:35:02;;;;;;;5.33;3.80;;;;;;;;;;5113518;28;20173;-69
2022/11/06 03:37:41;;;;;;;5.03;2.70;;;;;;;-142.65;80.68;50174.75;5113735;28;20267;-69
2022/11/06 03:40:12;;;;;;;7.30;3.20;;;;;;;-142.65;80.62;50172.78;5113791;28;20199;-69
2022/11/06 03:42:40;;;;;;;6.03;2.73;;;;;;;-142.65;80.44;50174.75;5113526;28;20662;-69
2022/11/06 03:45:12;;;;;;;3.10;2.97;;;;;;;-142.65;80.65;50174.75;5113669;28;20196;-69
2022/11/06 03:47:44;;;;;;;4.50;3.67;;;;;;;;;;5113355;28;20201;-69
2022/11/06 03:50:13;;;;;;;2.73;2.73;;;;;;;;;;5113425;28;20219;-69
2022/11/06 03:52:48;;;;;;;5.40;2.80;;;;;;;-142.65;80.67;50168.78;5113538;28;20208;-70
2022/11/06 03:55:18;;;;;;;2.97;2.87;;;;;;;-142.65;80.70;50172.78;5113893;28;20616;-70
2022/11/06 03:57:51;;;;;;;3.27;2.83;;;;;;;-142.65;80.81;50172.78;5115200;28;20189;-70
2022/11/06 04:00:19;;;;;;;6.93;3.53;;;;;;;-142.65;80.82;50174.75;5117524;28;20181;-69
2022/11/06 04:02:51;;;;;;;3.30;3.00;;;;;;;-142.65;80.96;50174.75;5117709;28;20269;-69
2022/11/06 04:05:22;;;;;;;2.53;2.53;;;;;;;;;;5117367;28;20195;-69
2022/11/06 04:16:17;;;;;;;3.17;2.73;;;;;;;-142.65;80.95;50178.75;5117483;28;20534;-69
2022/11/06 04:18:43;;;;;;;5.40;3.17;;;;;;;-142.65;80.84;50178.75;5116863;28;20181;-69
2022/11/06 04:21:38;;;;;;;3.07;2.67;;;;;;;-142.65;80.87;50172.78;5117039;28;20669;-69
2022/11/06 04:27:12;;;;;;;2.90;2.80;;;;;;;-142.65;80.73;50172.78;5117246;28;20263;-70
2022/11/06 04:29:56;;;;;;;2.83;2.63;;;;;;;-142.65;80.57;50170.78;5116948;28;20191;-70
2022/11/06 04:32:43;;;;;;;2.90;2.80;;;;;;;-142.65;80.63;50176.75;5116803;28;20560;-70
2022/11/06 04:35:30;;;;;;;4.33;2.90;;;;;;;-142.65;80.75;50178.75;5116864;28;20183;-69
2022/11/06 04:38:06;;;;;;;3.17;3.03;;;;;;;-142.65;80.63;50180.75;5116778;28;20177;-69
2022/11/06 04:41:01;;;;;;;2.10;2.10;;;;;;;;;;5116760;28;20177;-69
2022/11/06 04:43:48;;;;;;;4.30;3.47;;;;;;;-142.65;80.95;50170.78;5113333;28;20221;-69
2022/11/06 04:46:20;;;;;;;3.30;3.20;;;;;;;;;;5116549;28;20286;-69
2022/11/06 04:48:48;;;;;;;3.33;2.53;;;;;;;-142.65;81.28;50174.75;5116843;28;20721;-69
2022/11/06 04:51:19;;;;;;;2.90;2.80;;;;;;;-142.65;81.31;50172.78;5116157;28;20678;-69
2022/11/06 04:53:48;;;;;;;3.13;2.97;;;;;;;-142.65;81.25;50176.75;5116774;28;20169;-69
2022/11/06 04:56:27;;;;;;;3.20;2.83;;;;;;;-142.65;81.51;50168.78;5116414;28;20196;-69
2022/11/06 04:58:55;;;;;;;2.83;2.60;;;;;;;-142.65;81.63;50172.78;5116676;28;20180;-69
2022/11/06 05:01:22;;;;;;;2.20;2.20;;;;;;;-142.65;82.00;50174.75;5116195;28;20193;-70
2022/11/06 05:03:48;;;;;;;2.40;2.10;;;;;;;-142.65;81.68;50170.78;5116261;28;20189;-70
2022/11/06 05:06:15;;;;;;;5.03;3.10;;;;;;;-142.65;81.62;50172.78;5116243;28;20581;-69
2022/11/06 05:08:41;;;;;;;2.63;2.53;;;;;;;-142.65;81.67;50174.75;5115558;28;20200;-69
2022/11/06 05:11:08;;;;;;;4.70;4.30;;;;;;;-142.65;81.84;50174.75;5115892;28;20573;-69
2022/11/06 05:13:34;;;;;;;6.13;5.03;;;;;;;-142.65;81.47;50178.75;5115620;28;20694;-69
2022/11/06 05:16:01;;;;;;;5.90;5.40;;;;;;;-142.65;81.23;50178.75;5116074;28;20161;-69
2022/11/06 05:18:27;;;;;;;4.83;4.47;;;;;;;;;;5115726;28;20185;-68
2022/11/06 05:22:56;;;;;;;5.30;5.00;;;;;;;;;;5115942;28;20552;-69
2022/11/06 05:23:40;;;;;;;4.90;4.70;;;;;;;-142.65;81.50;50170.78;5115586;28;20192;-69
2022/11/06 05:26:07;;;;;;;5.20;4.80;;;;;;;-142.65;81.55;50170.78;5116142;28;20195;-69
2022/11/06 05:28:34;;;;;;;4.90;4.70;;;;;;;-142.65;81.56;50168.78;5115465;28;20208;-69
2022/11/06 05:31:00;;;;;;;4.37;4.27;;;;;;;-142.65;81.71;50174.75;5115456;28;20654;-69
2022/11/06 05:33:26;;;;;;;2.80;2.80;;;;;;;-142.65;81.91;50168.78;5115349;28;20212;-69
2022/11/06 05:35:53;;;;;;;2.73;2.70;;;;;;;-142.65;82.18;50170.78;5115653;28;20185;-69
2022/11/06 05:38:19;;;;;;;2.50;2.50;;;;;;;-142.65;82.13;50178.75;5115326;28;20178;-69
2022/11/06 05:40:46;;;;;;;2.67;2.53;;;;;;;-142.65;82.48;50178.75;5097090;28;20287;-69
2022/11/06 05:43:12;;;;;;;6.07;2.73;;;;;;;-142.65;82.32;50170.78;5115661;28;20218;-69
2022/11/06 05:45:38;;;;;;;5.27;3.10;;;;;;;-142.65;82.45;50170.78;5115423;28;20196;-69
2022/11/06 05:48:05;;;;;;;2.50;2.10;;;;;;;-142.65;82.45;50178.75;5115041;28;20231;-69
2022/11/06 05:50:31;;;;;;;2.17;2.17;;;;;;;-142.65;82.49;50176.75;5115118;28;20189;-69
2022/11/06 05:53:02;;;;;;;2.50;2.40;;;;;;;-142.65;82.45;50178.75;5115286;28;20234;-69
2022/11/06 05:55:29;;;;;;;3.77;3.77;;;;;;;-142.65;83.05;50168.78;5114963;28;20189;-69
2022/11/06 05:57:55;;;;;;;3.87;3.70;;;;;;;-142.65;83.10;50170.78;5114917;28;20191;-69
2022/11/06 06:00:21;;;;;;;5.80;3.60;;;;;;;-142.65;83.24;50168.78;5115163;28;20183;-69
2022/11/06 06:02:48;;;;;;;3.13;2.83;;;;;;;-142.65;83.14;50170.78;5115326;28;20205;-69
2022/11/06 06:05:14;;;;;;;3.00;3.00;;;;;;;-142.65;83.59;50178.75;5114804;28;20192;-69
2022/11/06 06:07:41;;;;;;;2.70;2.70;;;;;;;-142.65;83.72;50170.78;5114724;28;20208;-69
2022/11/06 06:10:08;;;;;;;3.03;2.80;;;;;;;-142.65;83.84;50178.75;5115195;28;20648;-69
2022/11/06 06:12:34;;;;;;;3.67;2.80;;;;;;;-142.65;83.88;50170.78;5115228;28;20547;-69
2022/11/06 06:15:01;;;;;;;3.23;3.13;;;;;;;-142.65;84.57;50178.75;5114529;28;20191;-69
2022/11/06 06:17:27;;;;;;;7.07;2.83;;;;;;;-142.65;84.39;50180.75;5114814;28;20189;-69
2022/11/06 06:19:53;;;;;;;3.27;3.17;;;;;;;;;;5114120;28;20182;-69
2022/11/06 06:22:20;;;;;;;3.47;3.40;;;;;;;-142.65;84.03;50180.75;5114421;28;20201;-69
2022/11/06 06:24:46;;;;;;;7.43;4.10;;;;;;;-142.65;84.21;50180.75;5114434;28;20556;-69
2022/11/06 06:27:13;;;;;;;5.33;4.10;;;;;;;-142.65;84.39;50178.75;5114255;28;20336;-69
2022/11/06 06:29:39;;;;;;;3.50;3.30;;;;;;;-142.65;84.02;50174.75;5114123;28;20196;-69
2022/11/06 06:32:06;;;;;;;3.07;3.07;;;;;;;-142.65;84.12;50168.78;5114426;28;20205;-69
2022/11/06 06:34:32;;;;;;;2.90;2.73;;;;;;;-142.65;84.22;50180.75;5114262;28;20197;-69
2022/11/06 06:36:58;;;;;;;5.00;2.80;;;;;;;-142.65;84.17;50180.75;5114180;28;20192;-69
2022/11/06 06:39:25;;;;;;;3.13;2.93;;;;;;;-142.65;84.23;50176.75;5114712;28;20264;-69
2022/11/06 06:41:51;;;;;;;4.43;3.70;;;;;;;-142.65;83.95;50178.75;5114814;28;20215;-70
2022/11/06 06:44:17;;;;;;;3.30;3.30;;;;;;;;;;5114099;28;20555;-70
2022/11/06 06:46:44;;;;;;;3.93;3.60;;;;;;;-142.65;84.38;50168.78;5114327;28;20181;-70
2022/11/06 06:49:10;;;;;;;3.73;3.43;;;;;;;-142.65;84.58;50176.75;5114470;28;20205;-69
2022/11/06 06:51:37;;;;;;;9.83;3.50;;;;;;;-142.65;84.33;50176.75;5113896;28;20293;-69
2022/11/06 06:54:03;;;;;;;3.87;3.70;;;;;;;-142.65;84.48;50178.75;5113944;28;20196;-69
2022/11/06 06:56:29;;;;;;;10.53;3.40;;;;;;;-142.65;84.56;50170.78;5113900;28;20659;-69
2022/11/06 06:58:56;;;;;;;3.70;3.47;;;;;;;-142.65;84.57;50172.78;5113870;28;20196;-69
2022/11/06 07:01:22;;;;;;;8.57;4.63;;;;;;;-142.65;84.61;50174.75;5113767;28;20189;-69
2022/11/06 07:03:48;;;;;;;4.70;4.53;;;;;;;-142.65;84.54;50168.78;5114096;28;20714;-69
2022/11/06 07:06:18;;;;;;;6.07;5.67;;;;;;;-142.65;84.41;50170.78;5113771;28;20192;-69
2022/11/06 07:08:44;;;;;;;5.97;5.67;;;;;;;-142.65;84.10;50174.75;5113971;28;20561;-69
2022/11/06 07:11:11;;;;;;;6.07;5.60;;;;;;;-142.65;84.00;50174.75;5114366;28;20180;-69
2022/11/06 07:13:37;;;;;;;8.33;6.33;;;;;;;-142.65;83.77;50168.78;5114027;28;20189;-69
2022/11/06 07:16:04;;;;;;;6.30;5.83;;;;;;;;;;5113720;28;20212;-69
2022/11/06 07:18:32;;;;;;;6.03;5.77;;;;;;;-142.65;83.20;50172.78;5113949;28;20183;-69
2022/11/06 07:20:58;;;;;;;5.73;5.53;;;;;;;;;;5113614;28;20185;-69
2022/11/06 07:23:24;;;;;;;5.40;5.30;;;;;;;;;;5113548;28;20574;-69
2022/11/06 07:25:55;;;;;;;7.00;6.43;;;;;;;-142.65;83.75;50170.78;5113610;28;20187;-69
2022/11/06 07:28:21;;;;;;;6.27;5.77;;;;;;;-142.65;83.29;50164.81;5113851;28;20189;-69
2022/11/06 07:30:48;;;;;;;7.63;7.20;;;;;;;-142.65;83.16;50180.75;5113945;28;20689;-69
2022/11/06 07:33:14;;;;;;;7.20;6.77;;;;;;;-142.65;82.88;50170.78;5118026;28;20205;-70
2022/11/06 07:35:40;;;;;;;7.00;6.17;;;;;;;-142.65;82.76;50180.75;5117729;28;20187;-69
2022/11/06 07:38:07;;;;;;;5.67;5.13;;;;;;;-142.65;82.82;50176.75;5118006;28;20200;-69
2022/11/06 07:40:33;;;;;;;7.83;4.90;;;;;;;-142.65;82.57;50170.78;5117616;28;20189;-69
2022/11/06 07:43:04;;;;;;;4.57;4.47;;;;;;;-142.65;82.59;50180.75;5117779;28;20212;-69
2022/11/06 07:45:30;;;;;;;6.57;6.27;;;;;;;-142.65;82.38;50174.75;5117567;28;20173;-69
2022/11/06 07:47:57;;;;;;;5.27;5.00;;;;;;;-142.65;82.48;50172.78;5117411;28;20205;-69
2022/11/06 07:50:25;;;;;;;6.90;5.13;;;;;;;-142.65;82.04;50174.75;5117425;28;20188;-69
2022/11/06 07:52:52;;;;;;;4.53;4.33;;;;;;;-142.65;81.63;50170.78;5117537;28;20201;-69
2022/11/06 07:55:18;;;;;;;4.40;4.20;;;;;;;-142.65;81.43;50174.75;5117312;28;20181;-69
2022/11/06 07:57:45;;;;;;;3.07;2.97;;;;;;;-142.65;81.24;50164.81;5117537;28;20553;-69
2022/11/06 08:00:12;;;;;;;3.10;2.90;;;;;;;-142.65;80.78;50172.78;5117192;28;20187;-69
2022/11/06 08:02:39;;;;;;;2.47;2.47;;;;;;;-142.65;80.95;50178.75;5117588;28;20217;-69
2022/11/06 08:05:06;;;;;;;2.87;2.73;;;;;;;-142.65;80.33;50170.78;5098947;28;20283;-70
2022/11/06 08:07:32;;;;;;;4.93;3.10;;;;;;;-142.65;80.76;50170.78;5117037;28;20196;-69
2022/11/06 08:09:59;;;;;;;2.47;2.37;;;;;;;-142.65;80.23;50170.78;5117577;28;20195;-69
2022/11/06 08:12:25;;;;;;;2.40;2.27;;;;;;;-142.65;79.87;50174.75;5116940;28;20575;-70
2022/11/06 08:14:51;;;;;;;2.20;2.20;;;;;;;;;;5117248;28;20189;-69
2022/11/06 08:17:18;;;;;;;2.37;2.27;;;;;;;-142.65;79.53;50117.00;5116938;28;20259;-69
2022/11/06 08:19:44;;;;;;;2.70;2.60;;;;;;;;;;5116921;28;20552;-69
2022/11/06 08:22:10;;;;;;;3.15;2.67;;;;;;;-142.65;78.68;50168.78;5115842;28;20435;-69
2022/11/06 08:24:36;;;;;;;5.90;2.47;;;;;;;-142.65;78.20;50178.75;5116994;28;20187;-69
2022/11/06 08:27:03;;;;;;;2.70;2.60;;;;;;;-142.65;77.92;50170.78;5116730;28;20181;-69
2022/11/06 08:29:29;;;;;;;2.80;2.80;;;;;;;-142.65;78.25;50170.78;5116623;28;20675;-68
2022/11/06 08:31:56;;;;;;;3.43;2.70;;;;;;;-142.65;78.23;50168.78;5116554;28;20208;-69
2022/11/06 08:34:22;;;;;;;3.27;2.97;;;;;;;-142.65;78.47;50170.78;5116555;28;20181;-69
2022/11/06 08:36:52;;;;;;;2.23;2.13;;;;;;;;;;5117042;28;20185;-69
2022/11/06 08:39:19;;;;;;;4.23;2.50;;;;;;;;;;5116930;28;20172;-69
2022/11/06 08:41:45;;;;;;;3.40;3.03;;;;;;;;;;5116513;28;20208;-69
2022/11/06 08:44:11;;;;;;;3.10;2.80;;;;;;;-142.65;77.24;50178.75;5115687;28;20189;-68
2022/11/06 08:46:38;;;;;;;3.80;3.57;;;;;;;-142.65;77.35;50170.78;5116675;28;20171;-69
2022/11/06 08:49:04;;;;;;;4.20;3.77;;;;;;;-142.65;77.06;50170.78;5116503;28;20573;-69
2022/11/06 08:51:30;;;;;;;9.23;2.83;;;;;;;;;;5116176;28;20188;-68
2022/11/06 08:53:57;;;;;;;4.33;3.53;;;;;;;-142.65;76.62;50174.75;5116494;28;20185;-69
2022/11/06 08:56:24;;;;;;;3.90;3.60;;;;;;;-142.65;76.53;50170.78;5116415;28;20645;-69
2022/11/06 08:58:50;;;;;;;2.77;2.57;;;;;;;-142.65;76.15;50170.78;5116355;28;20197;-69
2022/11/06 09:01:22;;;;;;;3.57;3.40;;;;;;;-142.65;75.69;50168.78;5116348;28;20180;-69
2022/11/06 09:03:49;;;;;;;12.47;3.43;;;;;;;-142.65;75.44;50178.75;5116593;28;20186;-69
2022/11/06 09:06:15;;;;;;;3.70;3.60;;;;;;;;;;5116512;28;20181;-68
2022/11/06 09:08:42;;;;;;;8.07;3.43;;;;;;;-142.65;74.72;50170.78;5115874;28;20197;-69
2022/11/06 09:11:09;;;;;;;3.43;3.33;;;;;;;-142.65;74.96;50164.81;5116196;28;20176;-69
2022/11/06 09:13:35;;;;;;;3.20;3.00;;;;;;;-142.65;75.00;50172.78;5115636;28;20236;-68
2022/11/06 09:16:02;;;;;;;8.53;3.57;;;;;;;;;;5116090;28;20189;-68
2022/11/06 09:18:28;;;;;;;3.53;3.37;;;;;;;-142.65;75.83;50164.81;5115728;28;20177;-69
2022/11/06 09:20:56;;;;;;;6.83;3.17;;;;;;;-142.65;75.25;50170.78;5097559;28;20255;-69
2022/11/06 09:23:22;;;;;;;2.57;2.47;;;;;;;;;;5115849;28;20213;-69
2022/11/06 09:25:48;;;;;;;4.03;3.40;;;;;;;-142.65;75.22;50168.78;5116126;28;20185;-69
2022/11/06 09:28:15;;;;;;;12.77;11.00;;;;;;;-142.65;75.20;50170.78;5115413;28;20197;-69
2022/11/06 09:30:42;;;;;;;3.33;2.97;;;;;;;;;;5115309;28;20189;-69
2022/11/06 09:33:08;;;;;;;3.17;3.07;;;;;;;-142.65;74.78;50168.78;5115295;28;20205;-69
2022/11/06 09:35:39;;;;;;;4.63;3.20;;;;;;;-142.65;75.27;50172.78;5115650;28;20530;-69
2022/11/06 09:38:06;;;;;;;7.27;3.47;;;;;;;;;;5115576;28;20658;-69
2022/11/06 09:40:36;;;;;;;3.83;3.53;;;;;;;-142.65;75.76;50164.81;5115615;28;20201;-69
2022/11/06 09:43:14;;;;;;;2.50;2.50;;;;;;;;;;5115150;28;20205;-69
2022/11/06 09:45:41;;;;;;;4.73;2.67;;;;;;;-142.65;75.14;50170.78;5115513;28;20180;-69
2022/11/06 09:48:34;;;;;;;3.67;3.40;;;;;;;-142.65;74.94;50174.75;5115348;28;20212;-69
2022/11/06 09:51:05;;;;;;;3.30;3.03;;;;;;;-142.65;74.58;50170.78;5115320;28;20193;-69
2022/11/06 09:53:38;;;;;;;3.47;3.30;;;;;;;-142.65;74.56;50164.81;5096736;28;20718;-69
2022/11/06 09:56:09;;;;;;;3.33;3.23;;;;;;;-142.65;74.60;50170.78;5114269;28;20177;-69
2022/11/06 09:58:39;;;;;;;4.90;3.70;;;;;;;-142.65;74.90;50168.78;5115563;28;20170;-69
2022/11/06 10:01:22;;;;;;;4.27;3.40;;;;;;;-142.65;73.35;50170.78;5114959;28;20676;-69
2022/11/06 10:03:58;;;;;;;3.80;3.43;;;;;;;-142.65;73.81;50170.78;5114871;28;20170;-69
2022/11/06 10:06:26;;;;;;;2.70;2.60;;;;;;;;;;5115022;28;20545;-69
2022/11/06 10:08:55;;;;;;;3.00;2.80;;;;;;;;;;5114974;28;20557;-69
2022/11/06 10:11:50;;;;;;;2.47;2.27;;;;;;;-142.65;72.47;50174.75;5114943;28;20533;-69
2022/11/06 10:14:30;;;;;;;1.90;1.90;;;;;;;-142.65;71.55;50170.78;5114553;28;20191;-69
2022/11/06 10:17:22;;;;;;;3.63;2.10;;;;;;;-142.65;70.78;50162.81;5174263;27;20365;-71
2022/11/06 10:19:59;;;;;;;2.30;2.10;;;;;;;-142.65;70.11;50164.81;5152385;27;20207;-70
2022/11/06 10:22:26;;;;;;;8.57;2.60;;;;;;;;;;5141813;27;20212;-70
2022/11/06 10:25:08;;;;;;;3.60;2.23;;;;;;;-142.65;70.75;50164.81;5131549;28;20185;-70
2022/11/06 10:27:39;;;;;;;2.67;2.37;;;;;;;;;;5131829;28;20175;-70
2022/11/06 10:30:10;;;;;;;2.40;2.30;;;;;;;;;;5131976;28;20185;-70
2022/11/06 10:32:42;;;;;;;2.67;2.57;;;;;;;;;;5131444;27;20701;-70
2022/11/06 10:35:24;;;;;;;4.23;3.77;;;;;;;-142.65;70.57;50170.78;5131148;28;20201;-68
2022/11/06 10:38:30;;;;;;;2.20;2.20;;;;;;;;;;5131323;28;20239;-68
2022/11/06 10:40:56;;;;;;;3.23;2.83;;;;;;;-142.65;71.93;50164.81;5011729;28;20199;-68
2022/11/06 10:43:33;;;;;;;6.80;3.07;;;;;;;-142.65;71.71;50170.78;5028458;28;20215;-67
2022/11/06 10:46:47;;;;;;;2.63;2.53;;;;;;;-142.65;71.52;50170.78;5067828;28;20215;-67
2022/11/06 10:49:28;;;;;;;2.77;2.60;;;;;;;-142.65;71.13;50174.75;5028216;28;20199;-67
2022/11/06 10:52:19;;;;;;;2.40;2.40;;;;;;;-142.65;71.29;50170.78;5028264;28;20216;-68
2022/11/06 10:55:00;;;;;;;2.87;2.67;;;;;;;-142.65;71.59;50168.78;5104195;28;20213;-67
2022/11/06 10:57:42;;;;;;;3.90;2.27;;;;;;;-142.65;71.63;50178.75;5131172;28;20520;-67
2022/11/06 11:00:12;;;;;;;5.80;3.00;;;;;;;;;;5131322;28;20534;-67
2022/11/06 11:02:45;;;;;;;5.97;2.90;;;;;;;-142.65;71.51;50174.75;5130943;27;20711;-67
2022/11/06 11:05:15;;;;;;;3.10;2.40;;;;;;;-142.65;71.48;50162.81;5130787;28;20212;-68
2022/11/06 11:07:41;;;;;;;4.73;2.27;;;;;;;;;;5131115;28;20637;-68
2022/11/06 11:10:23;;;;;;;5.87;2.77;;;;;;;;;;5130757;28;20180;-68
2022/11/06 11:12:52;;;;;;;4.70;2.23;;;;;;;-142.65;72.00;50170.78;5130926;27;20266;-68
2022/11/06 11:15:20;;;;;;;2.13;2.13;;;;;;;-142.65;72.02;50174.75;5131001;28;20208;-67
2022/11/06 11:18:07;;;;;;;2.03;2.03;;;;;;;-142.65;72.40;50168.78;5130834;28;20173;-67
2022/11/06 11:20:36;;;;;;;2.20;2.10;;;;;;;-142.65;70.67;50162.81;5130562;28;20191;-67
2022/11/06 11:23:23;;;;;;;2.23;2.00;;;;;;;-142.65;70.13;50170.78;5130611;27;20682;-68
2022/11/06 11:25:50;;;;;;;6.73;2.17;;;;;;;;;;5130914;28;20256;-68
2022/11/06 11:28:24;;;;;;;5.00;2.20;;;;;;;-142.65;70.69;50174.75;5117530;28;20192;-68
2022/11/06 11:31:08;;;;;;;6.00;2.43;;;;;;;-142.65;70.21;50170.78;5116987;28;20529;-68
2022/11/06 11:33:37;;;;;;;2.47;2.40;;;;;;;-142.65;69.86;50180.75;5117023;28;20213;-67
2022/11/06 11:36:05;;;;;;;2.87;2.87;;;;;;;;;;5116359;28;20213;-67
2022/11/06 11:38:38;;;;;;;2.77;2.67;;;;;;;-142.65;70.74;50168.78;5116507;28;20581;-67
2022/11/06 11:41:22;;;;;;;4.67;2.50;;;;;;;-142.65;69.98;50172.78;5116744;28;20188;-68
2022/11/06 11:43:55;;;;;;;2.47;2.20;;;;;;;-142.65;70.29;50170.78;5116658;28;20619;-67
2022/11/06 11:46:21;;;;;;;2.90;2.77;;;;;;;;;;5116604;28;20178;-67
2022/11/06 11:48:50;;;;;;;2.90;2.70;;;;;;;-142.65;70.57;50172.78;5116590;28;20170;-67
2022/11/06 11:51:42;;;;;;;4.00;3.77;;;;;;;-142.65;71.16;50170.78;5116409;28;20185;-67
2022/11/06 11:54:11;;;;;;;2.13;2.03;;;;;;;-142.65;70.73;50170.78;5116487;28;20174;-67
2022/11/06 11:56:47;;;;;;;2.40;2.07;;;;;;;-142.65;69.52;50168.78;5116004;28;20205;-68
2022/11/06 11:59:38;;;;;;;2.63;2.63;;;;;;;-142.65;69.50;50170.78;5116651;28;20173;-67
2022/11/06 12:02:21;;;;;;;3.17;2.97;;;;;;;-142.65;70.07;50170.78;5116211;28;20211;-68
2022/11/06 12:04:59;;;;;;;5.60;3.10;;;;;;;-142.65;69.67;50172.78;5116525;28;20268;-67
2022/11/06 12:07:29;;;;;;;3.57;3.37;;;;;;;-142.65;68.89;50170.78;5116325;28;20176;-68
2022/11/06 12:09:57;;;;;;;2.87;2.87;;;;;;;-142.65;68.86;50162.81;5116075;28;20170;-68
2022/11/06 12:12:33;;;;;;;3.50;2.90;;;;;;;-142.65;69.11;50174.75;5115826;28;20211;-70
2022/11/06 12:15:25;;;;;;;2.37;2.37;;;;;;;-142.65;68.79;50172.78;5115722;28;20196;-70
2022/11/06 12:17:58;;;;;;;3.33;3.23;;;;;;;-142.65;69.46;50168.78;5115984;28;20184;-70